createdAt,value
2018-06-11T00:00:00.587Z,17.50
2018-06-11T00:02:30.167Z,19.53
2018-06-11T00:05:00.132Z,16.63
2018-06-11T00:07:30.151Z,18.13
2018-06-11T00:10:00.110Z,17.73
2018-06-11T00:12:30.120Z,20.23
2018-06-11T00:15:00.058Z,21.10
2018-06-11T00:17:30.123Z,18.73
2018-06-11T00:20:00.202Z,18.23
2018-06-11T00:22:30.192Z,18.17
2018-06-11T00:25:00.142Z,17.87
2018-06-11T00:27:30.134Z,16.80
2018-06-11T00:30:00.044Z,19.60
2018-06-11T00:32:29.914Z,16.77
2018-06-11T00:34:59.842Z,20.60
2018-06-11T00:37:29.709Z,18.33
2018-06-11T00:39:59.613Z,18.43
2018-06-11T00:42:29.492Z,19.60
2018-06-11T00:44:59.416Z,17.33
2018-06-11T00:47:36.059Z,20.10
2018-06-11T00:50:06.034Z,18.87
2018-06-11T00:52:35.887Z,18.43
2018-06-11T00:55:05.929Z,17.07
2018-06-11T00:57:35.879Z,16.90
2018-06-11T01:00:06.126Z,19.70
2018-06-11T01:02:36.119Z,19.10
2018-06-11T01:05:06.170Z,19.17
2018-06-11T01:07:36.090Z,16.97
2018-06-11T01:10:06.171Z,16.30
2018-06-11T01:12:36.186Z,15.77
2018-06-11T01:15:06.284Z,14.70
2018-06-11T01:17:36.636Z,14.80
2018-06-11T01:20:06.720Z,15.97
2018-06-11T01:22:36.761Z,18.33
2018-06-11T01:25:06.783Z,22.87
2018-06-11T01:27:36.700Z,16.07
2018-06-11T01:30:06.676Z,17.97
2018-06-11T01:32:36.551Z,15.17
2018-06-11T01:35:06.566Z,18.57
2018-06-11T01:37:36.456Z,16.73
2018-06-11T01:40:06.343Z,15.67
2018-06-11T01:42:36.245Z,17.80
2018-06-11T01:45:06.142Z,19.23
2018-06-11T01:47:35.596Z,15.13
2018-06-11T01:50:05.509Z,17.37
2018-06-11T01:52:35.465Z,17.40
2018-06-11T01:55:05.457Z,16.03
2018-06-11T01:57:35.547Z,15.90
2018-06-11T02:00:05.711Z,14.23
2018-06-11T02:02:35.672Z,15.13
2018-06-11T02:05:05.861Z,15.03
2018-06-11T02:07:35.810Z,17.77
2018-06-11T02:10:05.893Z,16.73
2018-06-11T02:12:35.880Z,18.23
2018-06-11T02:15:05.980Z,17.40
2018-06-11T02:17:36.020Z,16.40
2018-06-11T02:20:06.011Z,17.17
2018-06-11T02:22:35.991Z,16.63
2018-06-11T02:25:06.006Z,18.20
2018-06-11T02:27:35.921Z,16.93
2018-06-11T02:30:06.135Z,17.43
2018-06-11T02:32:36.125Z,17.57
2018-06-11T02:35:06.166Z,18.40
2018-06-11T02:37:36.118Z,14.03
2018-06-11T02:40:06.155Z,17.73
2018-06-11T02:42:36.116Z,16.60
2018-06-11T02:45:06.640Z,16.00
2018-06-11T02:47:36.609Z,18.73
2018-06-11T02:50:07.218Z,17.77
2018-06-11T02:52:37.210Z,15.50
2018-06-11T02:55:07.448Z,18.43
2018-06-11T02:57:37.452Z,15.63
2018-06-11T03:00:07.499Z,15.07
2018-06-11T03:02:37.570Z,16.70
2018-06-11T03:05:07.878Z,15.30
2018-06-11T03:07:37.900Z,17.97
2018-06-11T03:10:07.877Z,18.50
2018-06-11T03:12:37.928Z,17.87
2018-06-11T03:15:07.923Z,18.47
2018-06-11T03:17:37.876Z,15.13
2018-06-11T03:20:07.926Z,20.03
2018-06-11T03:22:37.810Z,19.63
2018-06-11T03:25:07.934Z,17.57
2018-06-11T03:27:37.890Z,16.83
2018-06-11T03:30:07.937Z,18.57
2018-06-11T03:32:37.863Z,20.17
2018-06-11T03:35:07.869Z,16.97
2018-06-11T03:37:37.876Z,16.70
2018-06-11T03:40:07.860Z,18.17
2018-06-11T03:42:37.843Z,16.90
2018-06-11T03:45:07.842Z,17.77
2018-06-11T03:47:37.846Z,16.50
2018-06-11T03:50:07.840Z,16.73
2018-06-11T03:52:37.837Z,17.13
2018-06-11T03:55:07.923Z,17.17
2018-06-11T03:57:37.924Z,15.83
2018-06-11T04:00:08.004Z,15.50
2018-06-11T04:02:37.995Z,15.83
2018-06-11T04:05:08.049Z,14.93
2018-06-11T04:07:38.050Z,16.83
2018-06-11T04:10:08.007Z,13.77
2018-06-11T04:12:37.955Z,15.80
2018-06-11T04:15:08.109Z,13.80
2018-06-11T04:17:38.065Z,13.57
2018-06-11T04:20:08.026Z,17.13
2018-06-11T04:22:38.151Z,11.90
2018-06-11T04:25:08.270Z,15.77
2018-06-11T04:27:38.194Z,12.73
2018-06-11T04:30:08.217Z,17.33
2018-06-11T04:32:38.207Z,12.90
2018-06-11T04:35:08.133Z,15.23
2018-06-11T04:37:38.069Z,13.83
2018-06-11T04:40:08.081Z,10.90
2018-06-11T04:42:38.113Z,13.10
2018-06-11T04:45:08.106Z,15.17
2018-06-11T04:47:38.103Z,14.63
2018-06-11T04:50:08.025Z,13.63
2018-06-11T04:52:38.027Z,12.87
2018-06-11T04:55:08.023Z,10.57
2018-06-11T04:57:37.946Z,10.57
2018-06-11T05:00:07.957Z,9.73
2018-06-11T05:02:38.031Z,12.63
2018-06-11T05:05:08.213Z,10.50
2018-06-11T05:07:38.167Z,11.17
2018-06-11T05:10:08.206Z,11.00
2018-06-11T05:12:37.810Z,10.00
2018-06-11T05:15:07.806Z,12.03
2018-06-11T05:17:37.835Z,9.80
2018-06-11T05:20:07.869Z,11.00
2018-06-11T05:22:37.519Z,14.20
2018-06-11T05:25:07.504Z,9.83
2018-06-11T05:27:37.550Z,11.03
2018-06-11T05:30:07.600Z,9.33
2018-06-11T05:32:37.603Z,9.60
2018-06-11T05:35:07.640Z,9.17
2018-06-11T05:37:37.745Z,10.27
2018-06-11T05:40:07.801Z,9.93
2018-06-11T05:42:37.759Z,9.10
2018-06-11T05:45:07.735Z,9.83
2018-06-11T05:47:37.699Z,7.67
2018-06-11T05:50:07.680Z,8.20
2018-06-11T05:52:37.646Z,8.80
2018-06-11T05:55:07.716Z,7.87
2018-06-11T05:57:37.688Z,10.37
2018-06-11T06:00:07.727Z,9.87
2018-06-11T06:02:37.668Z,9.40
2018-06-11T06:05:07.734Z,7.77
2018-06-11T06:07:37.675Z,9.17
2018-06-11T06:10:07.812Z,11.50
2018-06-11T06:12:37.835Z,11.17
2018-06-11T06:15:08.039Z,8.40
2018-06-11T06:17:38.079Z,9.17
2018-06-11T06:20:08.530Z,12.60
2018-06-11T06:22:38.519Z,9.97
2018-06-11T06:25:08.563Z,9.97
2018-06-11T06:27:38.554Z,12.57
2018-06-11T06:30:08.564Z,10.73
2018-06-11T06:32:38.619Z,10.53
2018-06-11T06:35:08.684Z,10.37
2018-06-11T06:37:38.643Z,12.47
2018-06-11T06:40:08.741Z,10.87
2018-06-11T06:42:38.768Z,10.37
2018-06-11T06:45:08.712Z,9.90
2018-06-11T06:47:38.728Z,9.63
2018-06-11T06:50:08.784Z,9.93
2018-06-11T06:52:38.763Z,11.33
2018-06-11T06:55:08.770Z,13.37
2018-06-11T06:57:38.758Z,10.17
2018-06-11T07:00:08.721Z,13.63
2018-06-11T07:02:38.733Z,10.13
2018-06-11T07:05:08.758Z,8.43
2018-06-11T07:07:38.847Z,12.53
2018-06-11T07:10:08.869Z,12.17
2018-06-11T07:12:39.009Z,11.67
2018-06-11T07:15:08.941Z,11.07
2018-06-11T07:17:38.953Z,20.93
2018-06-11T07:20:09.064Z,15.47
2018-06-11T07:22:39.006Z,13.87
2018-06-11T07:25:09.078Z,10.37
2018-06-11T07:27:39.124Z,16.93
2018-06-11T07:30:09.087Z,12.43
2018-06-11T07:32:39.123Z,11.87
2018-06-11T07:35:09.078Z,13.87
2018-06-11T07:37:39.089Z,14.80
2018-06-11T07:40:09.207Z,12.07
2018-06-11T07:45:12.567Z,11.20
2018-06-11T07:47:42.558Z,13.57
2018-06-11T07:50:12.601Z,13.47
2018-06-11T07:52:42.611Z,14.83
2018-06-11T07:55:12.637Z,12.37
2018-06-11T07:57:42.678Z,13.23
2018-06-11T08:00:12.852Z,13.03
2018-06-11T08:02:42.970Z,11.20
2018-06-11T08:05:13.050Z,13.77
2018-06-11T08:07:43.095Z,12.30
2018-06-11T08:10:13.142Z,11.90
2018-06-11T08:12:43.091Z,14.73
2018-06-11T08:15:13.180Z,14.57
2018-06-11T08:17:43.157Z,11.87
2018-06-11T08:20:13.237Z,13.80
2018-06-11T08:22:43.289Z,13.70
2018-06-11T08:25:13.421Z,14.07
2018-06-11T08:27:43.455Z,15.97
2018-06-11T08:30:13.118Z,13.47
2018-06-11T08:32:43.017Z,14.80
2018-06-11T08:35:13.116Z,16.33
2018-06-11T08:37:42.812Z,15.60
2018-06-11T08:40:12.853Z,14.63
2018-06-11T08:42:42.825Z,13.60
2018-06-11T08:45:12.967Z,14.13
2018-06-11T08:47:43.021Z,16.70
2018-06-11T08:50:13.044Z,12.37
2018-06-11T08:52:43.132Z,13.80
2018-06-11T08:55:12.896Z,15.13
2018-06-11T08:57:42.889Z,13.47
2018-06-11T09:00:13.038Z,13.87
2018-06-11T09:02:43.143Z,14.60
2018-06-11T09:05:13.247Z,14.70
2018-06-11T09:07:43.282Z,13.87
2018-06-11T09:10:13.352Z,14.37
2018-06-11T09:12:43.286Z,13.10
2018-06-11T09:15:13.369Z,12.60
2018-06-11T09:17:43.499Z,12.53
2018-06-11T09:20:13.562Z,13.27
2018-06-11T09:22:43.611Z,14.10
2018-06-11T09:25:13.604Z,13.43
2018-06-11T09:27:43.610Z,13.27
2018-06-11T09:30:13.601Z,13.73
2018-06-11T09:32:43.589Z,12.13
2018-06-11T09:35:13.616Z,13.03
2018-06-11T09:37:43.593Z,13.47
2018-06-11T09:40:13.701Z,12.57
2018-06-11T09:42:43.800Z,11.67
2018-06-11T09:45:13.729Z,11.97
2018-06-11T09:47:43.837Z,9.77
2018-06-11T09:50:13.902Z,10.47
2018-06-11T09:52:43.970Z,12.17
2018-06-11T09:55:13.988Z,13.10
2018-06-11T09:57:43.955Z,12.40
2018-06-11T10:00:19.142Z,10.60
2018-06-11T10:02:49.167Z,10.63
2018-06-11T10:05:19.201Z,12.70
2018-06-11T10:07:49.339Z,10.20
2018-06-11T10:10:19.362Z,10.80
2018-06-11T10:12:49.305Z,9.37
2018-06-11T10:15:19.356Z,9.37
2018-06-11T10:17:49.258Z,9.85
2018-06-11T10:20:19.327Z,11.47
2018-06-11T10:22:49.341Z,10.72
2018-06-11T10:25:19.341Z,9.38
2018-06-11T10:27:49.329Z,9.58
2018-06-11T10:30:19.324Z,8.38
2018-06-11T10:32:49.276Z,12.85
2018-06-11T10:35:19.295Z,10.48
2018-06-11T10:37:49.361Z,12.18
2018-06-11T10:40:19.364Z,11.05
2018-06-11T10:42:49.318Z,11.97
2018-06-11T10:45:19.378Z,10.70
2018-06-11T10:47:49.450Z,12.85
2018-06-11T10:50:19.562Z,11.60
2018-06-11T10:52:49.586Z,14.43
2018-06-11T10:55:19.687Z,12.50
2018-06-11T10:57:49.671Z,9.73
2018-06-11T11:00:19.654Z,11.03
2018-06-11T11:02:49.717Z,12.55
2018-06-11T11:05:20.175Z,10.23
2018-06-11T11:07:50.213Z,12.10
2018-06-11T11:10:20.204Z,13.32
2018-06-11T11:12:50.197Z,9.33
2018-06-11T11:15:20.206Z,8.95
2018-06-11T11:17:50.165Z,11.25
2018-06-11T11:20:20.249Z,12.43
2018-06-11T11:22:50.258Z,10.58
2018-06-11T11:25:20.321Z,12.85
2018-06-11T11:27:50.387Z,9.93
2018-06-11T11:30:20.329Z,9.38
2018-06-11T11:32:50.329Z,10.48
2018-06-11T11:35:20.437Z,8.35
2018-06-11T11:37:50.416Z,10.55
2018-06-11T11:40:20.526Z,10.13
2018-06-11T11:42:50.573Z,7.10
2018-06-11T11:45:20.610Z,6.80
2018-06-11T11:47:50.569Z,7.50
2018-06-11T11:50:20.675Z,8.88
2018-06-11T11:52:50.730Z,8.33
2018-06-11T11:55:20.766Z,9.48
2018-06-11T11:57:50.742Z,8.60
2018-06-11T12:00:20.807Z,10.30
2018-06-11T12:02:50.810Z,8.58
2018-06-11T12:05:20.812Z,8.28
2018-06-11T12:07:50.914Z,10.03
2018-06-11T12:10:20.849Z,10.55
2018-06-11T12:12:50.921Z,9.58
2018-06-11T12:15:20.916Z,7.60
2018-06-11T12:17:50.929Z,10.23
2018-06-11T12:20:20.997Z,9.80
2018-06-11T12:22:51.038Z,10.75
2018-06-11T12:25:21.016Z,8.15
2018-06-11T12:27:50.953Z,10.38
2018-06-11T12:30:20.921Z,11.78
2018-06-11T12:32:51.009Z,8.03
2018-06-11T12:35:20.970Z,7.28
2018-06-11T12:37:51.016Z,7.15
2018-06-11T12:40:21.041Z,9.38
2018-06-11T12:42:51.039Z,7.35
2018-06-11T12:45:22.581Z,10.23
2018-06-11T12:47:52.637Z,6.22
2018-06-11T12:50:22.702Z,7.33
2018-06-11T12:52:52.680Z,9.98
2018-06-11T12:55:22.729Z,7.40
2018-06-11T12:57:52.716Z,9.20
2018-06-11T13:00:22.689Z,8.35
2018-06-11T13:02:52.732Z,7.55
2018-06-11T13:05:22.863Z,8.48
2018-06-11T13:07:52.849Z,8.10
2018-06-11T13:10:22.881Z,7.60
2018-06-11T13:12:52.940Z,10.25
2018-06-11T13:15:23.005Z,11.33
2018-06-11T13:17:53.078Z,9.18
2018-06-11T13:20:23.169Z,10.23
2018-06-11T13:22:53.169Z,7.87
2018-06-11T13:25:23.183Z,9.38
2018-06-11T13:27:53.196Z,8.73
2018-06-11T13:30:23.325Z,10.23
2018-06-11T13:32:53.340Z,8.43
2018-06-11T13:35:23.367Z,9.48
2018-06-11T13:37:53.491Z,10.40
2018-06-11T13:40:23.844Z,10.15
2018-06-11T13:42:54.149Z,10.25
2018-06-11T13:45:24.522Z,10.98
2018-06-11T13:47:54.879Z,8.65
2018-06-11T13:50:24.962Z,10.32
2018-06-11T13:52:55.429Z,9.78
2018-06-11T13:55:25.529Z,9.78
2018-06-11T13:57:55.720Z,8.55
2018-06-11T14:00:25.851Z,10.20
2018-06-11T14:02:55.929Z,9.83
2018-06-11T14:05:25.924Z,8.18
2018-06-11T14:07:56.261Z,8.25
2018-06-11T14:10:26.559Z,7.05
2018-06-11T14:12:56.862Z,11.22
2018-06-11T14:15:26.927Z,9.38
2018-06-11T14:17:57.022Z,9.03
2018-06-11T14:20:27.135Z,9.05
2018-06-11T14:22:57.149Z,8.35
2018-06-11T14:25:27.245Z,9.88
2018-06-11T14:27:57.216Z,10.15
2018-06-11T14:30:27.229Z,10.43
2018-06-11T14:32:57.302Z,9.38
2018-06-11T14:35:27.432Z,9.15
2018-06-11T14:37:57.491Z,12.45
2018-06-11T14:40:27.523Z,6.87
2018-06-11T14:42:57.520Z,7.72
2018-06-11T14:45:27.534Z,10.10
2018-06-11T14:47:57.594Z,9.78
2018-06-11T14:50:27.648Z,9.58
2018-06-11T14:52:57.662Z,7.72
2018-06-11T14:55:27.581Z,6.45
2018-06-11T14:57:57.940Z,9.03
2018-06-11T15:00:28.054Z,5.75
2018-06-11T15:02:58.058Z,6.87
2018-06-11T15:05:28.132Z,8.55
2018-06-11T15:07:58.035Z,7.87
2018-06-11T15:10:28.104Z,8.10
2018-06-11T15:12:58.095Z,7.70
2018-06-11T15:15:28.115Z,12.20
2018-06-11T15:17:58.199Z,8.10
2018-06-11T15:20:28.292Z,10.00
2018-06-11T15:22:58.394Z,7.53
2018-06-11T15:25:28.374Z,8.03
2018-06-11T15:27:59.057Z,6.65
2018-06-11T15:30:29.585Z,8.65
2018-06-11T15:32:59.662Z,11.03
2018-06-11T15:35:30.190Z,9.30
2018-06-11T15:38:00.440Z,8.55
2018-06-11T15:40:30.596Z,8.93
2018-06-11T15:43:01.101Z,9.73
2018-06-11T15:45:31.231Z,8.75
2018-06-11T15:48:01.290Z,9.78
2018-06-11T15:50:31.328Z,10.85
2018-06-11T15:53:01.381Z,11.93
2018-06-11T15:55:31.444Z,9.35
2018-06-11T15:58:01.412Z,8.75
2018-06-11T16:00:31.511Z,9.60
2018-06-11T16:03:01.556Z,6.80
2018-06-11T16:05:31.599Z,10.63
2018-06-11T16:08:01.758Z,9.18
2018-06-11T16:10:32.858Z,8.48
2018-06-11T16:13:03.277Z,9.60
2018-06-11T16:15:33.254Z,8.18
2018-06-11T16:18:03.219Z,7.83
2018-06-11T16:20:33.310Z,8.18
2018-06-11T16:23:03.328Z,8.73
2018-06-11T16:25:33.408Z,6.25
2018-06-11T16:28:03.491Z,6.08
2018-06-11T16:30:33.502Z,6.50
2018-06-11T16:33:03.502Z,6.67
2018-06-11T16:35:33.557Z,9.45
2018-06-11T16:38:03.561Z,8.78
2018-06-11T16:40:33.570Z,7.22
2018-06-11T16:43:03.689Z,6.35
2018-06-11T16:45:33.588Z,7.60
2018-06-11T16:48:04.091Z,6.92
2018-06-11T16:50:34.205Z,8.68
2018-06-11T16:53:04.305Z,6.90
2018-06-11T16:55:33.881Z,7.83
2018-06-11T16:58:03.867Z,8.70
2018-06-11T17:00:33.938Z,7.22
2018-06-11T17:03:03.953Z,6.20
2018-06-11T17:05:34.027Z,7.70
2018-06-11T17:08:04.073Z,6.62
2018-06-11T17:10:35.875Z,5.28
2018-06-11T17:13:06.755Z,6.85
2018-06-11T17:15:38.056Z,5.60
2018-06-11T17:18:08.641Z,9.08
2018-06-11T17:20:38.917Z,6.35
2018-06-11T17:23:09.719Z,7.37
2018-06-11T17:25:39.829Z,7.20
2018-06-11T17:28:09.837Z,6.20
2018-06-11T17:30:40.008Z,6.30
2018-06-11T17:33:10.089Z,5.75
2018-06-11T17:35:40.233Z,8.50
2018-06-11T17:38:10.308Z,6.65
2018-06-11T17:40:40.431Z,7.00
2018-06-11T17:43:10.851Z,5.97
2018-06-11T17:45:41.496Z,4.87
2018-06-11T17:48:11.571Z,5.37
2018-06-11T17:50:41.684Z,7.10
2018-06-11T17:53:11.696Z,8.13
2018-06-11T17:55:41.715Z,7.72
2018-06-11T17:58:11.726Z,6.95
2018-06-11T18:00:41.790Z,6.20
2018-06-11T18:03:11.860Z,5.97
2018-06-11T18:05:41.803Z,5.20
2018-06-11T18:08:11.805Z,9.40
2018-06-11T18:10:51.758Z,6.40
2018-06-11T18:13:21.860Z,7.53
2018-06-11T18:15:51.840Z,6.78
2018-06-11T18:18:21.895Z,7.67
2018-06-11T18:20:51.871Z,9.33
2018-06-11T18:23:21.823Z,6.20
2018-06-11T18:25:53.004Z,8.38
2018-06-11T18:28:23.071Z,5.65
2018-06-11T18:30:53.171Z,6.05
2018-06-11T18:33:23.177Z,5.57
2018-06-11T18:35:53.243Z,6.45
2018-06-11T18:38:23.344Z,5.42
2018-06-11T18:40:53.397Z,4.95
2018-06-11T18:43:23.491Z,8.73
2018-06-11T18:45:53.485Z,6.67
2018-06-11T18:48:23.492Z,4.70
2018-06-11T18:50:53.430Z,4.85
2018-06-11T18:53:23.526Z,4.78
2018-06-11T18:55:54.269Z,7.85
2018-06-11T18:58:25.055Z,6.10
2018-06-11T19:00:55.176Z,4.78
2018-06-11T19:03:25.209Z,6.47
2018-06-11T19:05:55.369Z,6.30
2018-06-11T19:08:27.632Z,5.60
2018-06-11T19:10:57.723Z,8.55
2018-06-11T19:13:27.932Z,8.38
2018-06-11T19:15:57.968Z,7.83
2018-06-11T19:18:28.093Z,6.12
2018-06-11T19:20:58.200Z,7.03
2018-06-11T19:23:28.173Z,5.97
2018-06-11T19:25:57.768Z,6.10
2018-06-11T19:28:28.589Z,6.05
